Time;durP1;ratioP1;P1;durP2;ratioP2;P2;SDS_P1;SDS_P2;PMS_P1;PMS_P2;Temp;Humidity;BMP_temperature;BMP_pressure;BME280_temperature;BME280_humidity;BME280_pressure;Samples;Min_cycle;Max_cycle;Signal;HPM_P1;HPM_P2
2023/03/05 00:01:13;;;;;;;5.40;1.30;;;7.40;99.90;;;;;;5098873;28;20406;-67
2023/03/05 00:03:39;;;;;;;4.57;1.30;;;7.40;99.90;;;;;;5099420;28;20107;-68
2023/03/05 00:06:05;;;;;;;3.67;1.15;;;7.40;99.90;;;;;;5098032;28;20380;-66
2023/03/05 00:08:31;;;;;;;7.15;2.05;;;7.40;99.90;;;;;;5081256;28;20036;-66
2023/03/05 00:11:06;;;;;;;9.82;1.85;;;7.40;99.90;;;;;;5097887;28;20131;-66
2023/03/05 00:13:33;;;;;;;5.00;1.23;;;7.40;99.90;;;;;;5098705;28;20055;-66
2023/03/05 00:16:03;;;;;;;6.05;1.70;;;7.40;99.90;;;;;;5081275;28;20304;-67
2023/03/05 00:18:28;;;;;;;7.20;1.98;;;7.40;99.90;;;;;;5097750;28;20024;-67
2023/03/05 00:20:54;;;;;;;4.05;1.30;;;7.40;99.90;;;;;;5098540;28;20033;-68
2023/03/05 00:23:20;;;;;;;8.00;1.58;;;7.50;99.90;;;;;;5097719;28;20096;-67
2023/03/05 00:25:46;;;;;;;4.75;1.00;;;7.50;99.90;;;;;;5097717;28;20028;-68
2023/03/05 00:28:12;;;;;;;5.30;1.20;;;7.50;99.90;;;;;;5097517;28;20028;-67
2023/03/05 00:30:38;;;;;;;3.30;1.02;;;7.40;99.90;;;;;;5098093;28;20127;-66
2023/03/05 00:33:05;;;;;;;4.97;1.10;;;7.40;99.90;;;;;;5097489;28;20082;-68
2023/03/05 00:35:37;;;;;;;7.53;1.52;;;7.40;99.90;;;;;;5097659;28;20036;-67
2023/03/05 00:38:03;;;;;;;8.33;1.20;;;7.40;99.90;;;;;;5080424;28;20422;-67
2023/03/05 00:40:28;;;;;;;4.95;1.10;;;7.40;99.90;;;;;;5097392;28;20032;-67
2023/03/05 00:42:54;;;;;;;5.70;1.02;;;7.30;99.90;;;;;;5098173;28;20125;-66
2023/03/05 00:45:20;;;;;;;4.60;0.90;;;7.30;99.90;;;;;;5080518;28;20434;-66
2023/03/05 00:47:46;;;;;;;4.80;0.80;;;7.30;99.90;;;;;;5080585;28;20039;-66
2023/03/05 00:50:11;;;;;;;7.30;1.48;;;7.30;99.90;;;;;;5097302;28;20109;-68
2023/03/05 00:52:37;;;;;;;4.40;0.70;;;7.30;99.90;;;;;;5097724;28;20407;-68
2023/03/05 00:55:04;;;;;;;7.03;1.38;;;7.40;99.90;;;;;;5097350;28;20036;-67
2023/03/05 00:57:29;;;;;;;6.20;1.38;;;7.30;99.90;;;;;;5097241;28;20024;-67
2023/03/05 00:59:55;;;;;;;4.20;1.02;;;7.40;99.90;;;;;;5097692;28;20024;-68
2023/03/05 01:02:21;;;;;;;6.43;1.48;;;7.30;99.90;;;;;;5096540;28;20024;-67
2023/03/05 01:04:47;;;;;;;8.23;1.20;;;7.40;99.90;;;;;;5096974;28;20032;-67
2023/03/05 01:07:14;;;;;;;4.13;1.00;;;7.40;99.90;;;;;;5097121;28;20040;-68
2023/03/05 01:09:40;;;;;;;5.13;1.10;;;7.40;99.90;;;;;;5096842;28;20280;-69
2023/03/05 01:12:06;;;;;;;5.10;1.10;;;7.40;99.90;;;;;;5096956;28;20107;-68
2023/03/05 01:14:33;;;;;;;8.27;1.55;;;7.30;99.90;;;;;;5096744;28;20032;-68
2023/03/05 01:16:59;;;;;;;6.70;1.33;;;7.30;99.90;;;;;;5096964;28;20415;-68
2023/03/05 01:19:25;;;;;;;8.15;1.50;;;7.40;99.90;;;;;;5096830;28;20055;-67
2023/03/05 01:21:50;;;;;;;6.85;1.08;;;7.40;99.90;;;;;;5080043;28;20035;-68
2023/03/05 01:24:16;;;;;;;5.38;1.38;;;7.40;99.90;;;;;;5080154;28;20047;-67
2023/03/05 01:26:42;;;;;;;7.40;1.38;;;7.30;99.90;;;;;;5097298;28;20058;-67
2023/03/05 01:29:08;;;;;;;4.53;1.13;;;7.20;99.90;;;;;;5097210;28;20111;-68
2023/03/05 01:31:34;;;;;;;7.07;1.35;;;7.20;99.90;;;;;;5097518;28;20141;-67
2023/03/05 01:34:00;;;;;;;6.53;1.40;;;7.10;99.90;;;;;;5098069;28;20031;-67
2023/03/05 01:36:26;;;;;;;7.45;1.27;;;7.10;99.90;;;;;;5097509;28;20095;-67
2023/03/05 01:38:52;;;;;;;5.30;1.30;;;7.00;99.90;;;;;;5097869;28;20131;-67
2023/03/05 01:41:19;;;;;;;5.05;1.85;;;6.90;99.90;;;;;;5096480;28;20028;-67
2023/03/05 01:43:47;;;;;;;10.00;2.38;;;6.80;99.90;;;;;;5079569;28;20043;-67
2023/03/05 01:46:33;;;;;;;8.75;2.22;;;6.80;99.90;;;;;;5096190;28;20027;-67
2023/03/05 01:49:02;;;;;;;5.57;2.97;;;6.70;99.90;;;;;;5097326;28;20107;-67
2023/03/05 01:51:39;;;;;;;7.90;3.30;;;6.70;99.90;;;;;;5096937;28;20028;-67
2023/03/05 01:54:07;;;;;;;5.35;3.03;;;6.70;99.90;;;;;;5096144;28;20043;-67
2023/03/05 01:56:33;;;;;;;8.50;3.63;;;6.60;99.90;;;;;;5096351;28;20020;-67
2023/03/05 01:59:04;;;;;;;9.38;3.72;;;6.60;99.90;;;;;;5079537;28;20354;-68
2023/03/05 02:01:38;;;;;;;8.57;3.78;;;6.70;99.90;;;;;;5096846;28;20028;-68
2023/03/05 02:04:05;;;;;;;8.65;4.20;;;6.70;99.90;;;;;;5097546;28;20064;-68
2023/03/05 02:06:31;;;;;;;8.07;3.75;;;7.00;99.90;;;;;;5095839;28;20032;-68
2023/03/05 02:08:58;;;;;;;9.35;3.75;;;6.90;99.90;;;;;;5096417;28;20039;-67
2023/03/05 02:11:24;;;;;;;6.80;3.70;;;6.80;99.90;;;;;;5079447;28;20032;-67
2023/03/05 02:13:50;;;;;;;12.70;4.72;;;6.70;99.90;;;;;;5062546;28;20039;-68
2023/03/05 02:16:17;;;;;;;8.07;3.70;;;6.70;99.90;;;;;;5100064;28;20040;-68
2023/03/05 02:18:43;;;;;;;5.90;3.55;;;6.60;99.90;;;;;;5100282;28;20289;-67
2023/03/05 02:21:10;;;;;;;9.25;3.58;;;6.60;99.90;;;;;;5100800;28;20036;-68
2023/03/05 02:23:37;;;;;;;9.25;4.10;;;6.60;99.90;;;;;;5099925;28;20036;-68
2023/03/05 02:26:08;;;;;;;10.68;3.92;;;6.60;99.90;;;;;;5082918;28;20126;-67
2023/03/05 02:28:38;;;;;;;7.72;3.47;;;6.50;99.90;;;;;;5100718;28;20097;-68
2023/03/05 02:31:17;;;;;;;7.15;4.00;;;6.40;99.90;;;;;;5100007;28;20298;-67
2023/03/05 02:33:43;;;;;;;7.07;3.80;;;6.40;99.90;;;;;;5082801;28;20104;-68
2023/03/05 02:36:10;;;;;;;7.93;3.50;;;6.40;99.90;;;;;;5066546;28;20031;-66
2023/03/05 02:38:38;;;;;;;7.80;3.72;;;6.50;99.90;;;;;;5099611;28;20052;-67
2023/03/05 02:41:04;;;;;;;12.13;4.05;;;6.40;99.90;;;;;;5099933;28;20028;-68
2023/03/05 02:43:30;;;;;;;9.75;3.78;;;6.40;99.90;;;;;;5100401;28;20032;-67
2023/03/05 02:45:56;;;;;;;9.18;4.05;;;6.40;99.90;;;;;;5099871;28;20479;-67
2023/03/05 02:48:22;;;;;;;8.90;4.10;;;6.30;99.90;;;;;;5100360;28;20066;-67
2023/03/05 02:50:48;;;;;;;8.63;4.05;;;6.50;99.90;;;;;;5082643;28;20040;-66
2023/03/05 02:53:14;;;;;;;10.27;4.32;;;6.50;99.90;;;;;;5082350;28;20048;-68
2023/03/05 02:55:40;;;;;;;8.65;4.07;;;6.50;99.90;;;;;;5099569;28;20308;-67
2023/03/05 02:58:06;;;;;;;9.65;4.10;;;6.50;99.90;;;;;;5100217;28;20032;-66
2023/03/05 03:00:32;;;;;;;9.60;4.28;;;6.60;99.90;;;;;;5099371;28;20028;-69
2023/03/05 03:02:58;;;;;;;6.20;4.30;;;6.80;99.90;;;;;;5082517;28;20028;-67
2023/03/05 03:05:24;;;;;;;11.73;5.00;;;6.80;99.90;;;;;;5099459;28;20039;-67
2023/03/05 03:07:50;;;;;;;7.38;4.55;;;6.60;99.90;;;;;;5099518;28;20047;-66
2023/03/05 03:10:16;;;;;;;8.75;5.20;;;6.30;99.90;;;;;;5100004;28;20100;-67
2023/03/05 03:12:43;;;;;;;10.25;4.95;;;6.10;99.90;;;;;;5099547;28;20036;-67
2023/03/05 03:15:11;;;;;;;12.35;5.63;;;6.20;99.90;;;;;;5100146;28;20020;-68
2023/03/05 03:17:37;;;;;;;14.27;5.45;;;6.00;99.90;;;;;;5099677;28;20308;-67
2023/03/05 03:20:09;;;;;;;10.30;5.47;;;6.00;99.90;;;;;;5098971;28;20047;-67
2023/03/05 03:22:35;;;;;;;7.03;4.60;;;6.10;99.90;;;;;;5099749;28;20020;-66
2023/03/05 03:25:03;;;;;;;9.18;4.90;;;6.00;99.90;;;;;;5098556;28;20036;-67
2023/03/05 03:27:28;;;;;;;8.85;4.95;;;6.10;99.90;;;;;;5099511;28;20039;-67
2023/03/05 03:29:54;;;;;;;12.35;5.15;;;6.10;99.90;;;;;;5098919;28;20355;-67
2023/03/05 03:32:20;;;;;;;14.02;5.00;;;6.20;99.90;;;;;;5115560;28;20112;-67
2023/03/05 03:34:47;;;;;;;12.18;5.00;;;6.30;99.90;;;;;;5098525;28;20073;-67
2023/03/05 03:37:13;;;;;;;14.35;4.93;;;6.40;99.90;;;;;;5099195;28;20032;-69
2023/03/05 03:39:40;;;;;;;10.65;5.10;;;6.30;99.90;;;;;;5098925;28;20028;-70
2023/03/05 03:42:06;;;;;;;12.48;5.03;;;6.40;99.90;;;;;;5098708;28;20115;-69
2023/03/05 03:44:32;;;;;;;11.23;5.53;;;6.40;99.90;;;;;;5081840;28;20399;-66
2023/03/05 03:46:58;;;;;;;9.10;4.88;;;6.40;99.90;;;;;;5099037;28;20032;-69
2023/03/05 03:49:25;;;;;;;9.18;4.60;;;6.40;99.90;;;;;;5098667;28;20123;-67
2023/03/05 03:51:57;;;;;;;11.50;5.05;;;6.40;99.90;;;;;;5098460;28;20032;-68
2023/03/05 03:54:23;;;;;;;9.55;5.05;;;6.40;99.90;;;;;;5099105;28;20040;-68
2023/03/05 03:56:49;;;;;;;11.52;5.18;;;6.40;99.90;;;;;;5098518;28;20024;-68
2023/03/05 03:59:15;;;;;;;7.00;5.45;;;6.50;99.90;;;;;;5098371;28;20039;-68
2023/03/05 04:01:41;;;;;;;9.20;5.43;;;6.60;99.90;;;;;;5098417;28;20032;-68
2023/03/05 04:04:09;;;;;;;11.05;5.40;;;6.50;99.90;;;;;;5097999;28;20097;-68
2023/03/05 04:06:35;;;;;;;10.80;5.93;;;6.40;99.90;;;;;;5099096;28;20047;-69
2023/03/05 04:09:01;;;;;;;12.80;6.05;;;6.40;99.90;;;;;;5098680;28;20032;-68
2023/03/05 04:11:26;;;;;;;13.38;5.78;;;6.20;99.90;;;;;;5098160;28;20047;-68
2023/03/05 04:13:52;;;;;;;9.27;5.63;;;6.30;99.90;;;;;;5098642;28;20027;-70
2023/03/05 04:16:20;;;;;;;12.48;5.55;;;6.30;99.90;;;;;;5098053;28;20028;-67
2023/03/05 04:18:45;;;;;;;9.57;5.80;;;6.20;99.90;;;;;;5098920;28;20032;-68
2023/03/05 04:21:11;;;;;;;12.43;6.53;;;6.10;99.90;;;;;;5097883;28;20427;-68
2023/03/05 04:23:38;;;;;;;13.02;7.00;;;6.00;99.90;;;;;;5097888;28;20190;-68
2023/03/05 04:26:04;;;;;;;10.98;6.35;;;5.80;99.90;;;;;;5097748;28;20024;-68
2023/03/05 04:28:30;;;;;;;10.77;6.22;;;5.70;99.90;;;;;;5098920;28;20299;-69
2023/03/05 04:30:56;;;;;;;11.75;6.47;;;5.90;99.90;;;;;;5098026;28;20032;-70
2023/03/05 04:33:22;;;;;;;12.27;6.90;;;6.00;99.90;;;;;;5097689;28;20032;-69
2023/03/05 04:35:49;;;;;;;12.95;6.90;;;6.20;99.90;;;;;;5097750;28;20280;-68
2023/03/05 04:38:15;;;;;;;16.13;7.45;;;6.10;99.90;;;;;;5096957;28;20205;-70
2023/03/05 04:40:41;;;;;;;10.90;6.93;;;6.40;99.90;;;;;;5098600;28;20123;-70
2023/03/05 04:43:07;;;;;;;14.63;6.85;;;6.30;99.90;;;;;;5098505;28;20365;-69
2023/03/05 04:45:33;;;;;;;12.27;6.85;;;6.40;99.90;;;;;;5097645;28;20051;-68
2023/03/05 04:47:59;;;;;;;12.85;7.00;;;6.20;99.90;;;;;;5098143;28;20355;-69
2023/03/05 04:50:25;;;;;;;14.95;7.03;;;6.20;99.90;;;;;;5080931;28;20068;-69
2023/03/05 04:52:51;;;;;;;14.20;6.60;;;6.10;99.90;;;;;;5097337;28;20048;-68
2023/03/05 04:55:17;;;;;;;17.35;6.88;;;6.10;99.90;;;;;;5080639;28;20031;-69
2023/03/05 04:57:44;;;;;;;14.73;6.93;;;6.10;99.90;;;;;;5098415;28;20085;-68
2023/03/05 05:00:13;;;;;;;12.80;7.40;;;6.10;99.90;;;;;;5080539;28;20299;-68
2023/03/05 05:02:43;;;;;;;11.23;6.88;;;6.20;99.90;;;;;;5097173;28;20154;-68
2023/03/05 05:05:13;;;;;;;10.30;6.72;;;6.20;99.90;;;;;;5097510;28;20081;-67
2023/03/05 05:07:39;;;;;;;13.45;7.35;;;6.30;99.90;;;;;;5097816;28;20020;-70
2023/03/05 05:10:06;;;;;;;14.77;7.38;;;6.30;99.90;;;;;;5097129;28;20036;-69
2023/03/05 05:12:34;;;;;;;13.23;7.53;;;6.10;99.90;;;;;;5080649;28;20422;-69
2023/03/05 05:15:00;;;;;;;13.57;7.47;;;6.10;99.90;;;;;;5097082;28;20024;-68
2023/03/05 05:17:29;;;;;;;12.20;7.57;;;6.30;99.90;;;;;;5096754;28;20096;-67
2023/03/05 05:19:56;;;;;;;10.55;7.75;;;6.30;99.90;;;;;;5097966;28;20032;-69
2023/03/05 05:22:22;;;;;;;14.40;7.82;;;6.30;99.90;;;;;;5096928;28;20032;-69
2023/03/05 05:24:48;;;;;;;13.25;7.22;;;6.40;99.90;;;;;;5097645;28;20089;-67
2023/03/05 05:27:14;;;;;;;13.43;7.05;;;6.40;99.90;;;;;;5096960;28;20403;-67
2023/03/05 05:29:40;;;;;;;11.98;7.40;;;6.30;99.90;;;;;;5097228;28;20130;-68
2023/03/05 05:32:06;;;;;;;11.95;6.65;;;6.20;99.90;;;;;;5097193;28;20032;-69
2023/03/05 05:34:32;;;;;;;10.57;6.40;;;6.20;99.90;;;;;;5096789;28;20024;-68
2023/03/05 05:36:58;;;;;;;10.73;6.30;;;6.20;99.90;;;;;;5097415;28;20085;-67
2023/03/05 05:39:24;;;;;;;10.50;5.90;;;6.10;99.90;;;;;;5079819;28;20314;-70
2023/03/05 05:41:52;;;;;;;9.70;5.65;;;6.10;99.90;;;;;;5096956;28;20028;-68
2023/03/05 05:44:18;;;;;;;8.23;5.60;;;6.30;99.90;;;;;;5096689;28;20104;-69
2023/03/05 05:46:44;;;;;;;11.43;5.45;;;6.10;99.90;;;;;;5097290;28;20032;-69
2023/03/05 05:49:10;;;;;;;7.55;5.07;;;6.10;99.90;;;;;;5097148;28;20020;-69
2023/03/05 05:51:36;;;;;;;12.10;5.28;;;6.20;99.90;;;;;;5097266;28;20032;-68
2023/03/05 05:54:02;;;;;;;9.18;5.22;;;6.30;99.90;;;;;;5096274;28;20044;-67
2023/03/05 05:56:28;;;;;;;8.68;4.90;;;6.40;99.90;;;;;;5079794;28;20039;-69
2023/03/05 05:58:54;;;;;;;9.65;5.32;;;6.30;99.90;;;;;;5096446;28;20115;-66
2023/03/05 06:01:29;;;;;;;9.68;5.40;;;6.20;99.90;;;;;;5079401;28;20055;-67
2023/03/05 06:03:55;;;;;;;7.65;5.88;;;6.10;99.90;;;;;;5097072;28;20395;-67
2023/03/05 06:06:23;;;;;;;13.25;6.43;;;6.20;99.90;;;;;;5097052;28;20044;-67
2023/03/05 06:08:50;;;;;;;11.05;7.18;;;6.10;99.90;;;;;;5096246;28;20028;-68
2023/03/05 06:11:16;;;;;;;13.10;6.70;;;6.20;99.90;;;;;;5096844;28;20300;-67
2023/03/05 06:13:42;;;;;;;11.82;6.25;;;6.10;99.90;;;;;;5097621;28;20314;-68
2023/03/05 06:16:13;;;;;;;10.30;6.47;;;6.00;99.90;;;;;;5096274;28;20081;-69
2023/03/05 06:18:39;;;;;;;12.20;6.05;;;6.10;99.90;;;;;;5097119;28;20024;-69
2023/03/05 06:21:11;;;;;;;10.68;6.10;;;6.10;99.90;;;;;;5096657;28;20066;-68
2023/03/05 06:23:37;;;;;;;8.35;6.18;;;6.10;99.90;;;;;;5096846;28;20043;-68
2023/03/05 06:26:06;;;;;;;9.35;6.38;;;6.10;99.90;;;;;;5096967;28;20028;-68
2023/03/05 06:28:33;;;;;;;13.45;7.10;;;6.00;99.90;;;;;;5096780;28;20295;-68
2023/03/05 06:31:04;;;;;;;9.60;6.68;;;5.90;99.90;;;;;;5096785;28;20296;-69
2023/03/05 06:33:30;;;;;;;13.77;6.70;;;5.70;99.90;;;;;;5096064;28;20044;-68
2023/03/05 06:35:56;;;;;;;9.88;6.70;;;5.70;99.90;;;;;;5096514;28;20032;-68
2023/03/05 06:38:22;;;;;;;11.18;7.32;;;5.60;99.90;;;;;;5097276;28;20093;-68
2023/03/05 06:40:48;;;;;;;11.32;6.50;;;5.50;99.90;;;;;;5078949;28;20107;-68
2023/03/05 06:43:14;;;;;;;11.05;6.82;;;5.50;99.90;;;;;;5096833;28;20063;-68
2023/03/05 06:45:39;;;;;;;10.45;6.90;;;5.50;99.90;;;;;;5095976;28;20455;-68
2023/03/05 06:48:05;;;;;;;14.55;6.82;;;5.40;99.90;;;;;;5078857;28;20028;-69
2023/03/05 06:50:34;;;;;;;13.60;7.45;;;5.50;99.90;;;;;;5096681;28;20043;-68
2023/03/05 06:53:00;;;;;;;11.88;7.38;;;5.60;99.90;;;;;;5095468;28;20044;-67
2023/03/05 06:55:26;;;;;;;12.80;7.82;;;5.60;99.90;;;;;;5096593;28;20093;-68
2023/03/05 06:57:52;;;;;;;15.40;8.07;;;5.60;99.90;;;;;;5095960;28;20086;-68
2023/03/05 07:00:18;;;;;;;11.15;8.00;;;5.70;99.90;;;;;;5079510;28;20032;-67
2023/03/05 07:02:44;;;;;;;11.57;7.20;;;5.80;99.90;;;;;;5099740;28;20032;-69
2023/03/05 07:05:10;;;;;;;10.73;6.95;;;5.90;99.90;;;;;;5082949;28;20123;-68
2023/03/05 07:07:36;;;;;;;12.57;7.72;;;6.00;99.90;;;;;;5099465;28;20036;-67
2023/03/05 07:10:02;;;;;;;10.40;6.57;;;6.10;99.90;;;;;;5099213;28;20032;-68
2023/03/05 07:12:28;;;;;;;11.43;6.93;;;6.10;99.90;;;;;;5099052;28;20295;-67
2023/03/05 07:14:54;;;;;;;11.98;6.75;;;6.10;99.90;;;;;;5082184;28;20043;-68
2023/03/05 07:17:20;;;;;;;12.05;6.88;;;6.20;99.90;;;;;;5082311;28;20427;-67
2023/03/05 07:19:46;;;;;;;11.25;6.75;;;6.20;99.90;;;;;;5099181;28;20021;-68
2023/03/05 07:22:11;;;;;;;10.52;6.68;;;6.10;99.90;;;;;;5099123;28;20107;-67
2023/03/05 07:24:40;;;;;;;10.95;6.80;;;6.30;99.90;;;;;;5100157;28;20043;-68
2023/03/05 07:27:06;;;;;;;9.13;6.28;;;6.40;99.90;;;;;;5099312;28;20401;-67
2023/03/05 07:29:32;;;;;;;9.23;6.45;;;6.30;99.90;;;;;;5098914;28;20082;-69
2023/03/05 07:31:57;;;;;;;8.20;6.13;;;6.40;99.90;;;;;;5099718;28;20043;-68
2023/03/05 07:34:23;;;;;;;11.38;6.80;;;6.60;99.90;;;;;;5098802;28;20121;-70
2023/03/05 07:36:50;;;;;;;9.93;6.93;;;6.70;99.90;;;;;;5100061;28;20114;-68
2023/03/05 07:39:20;;;;;;;11.52;6.72;;;6.80;99.90;;;;;;5081996;28;20046;-67
2023/03/05 07:41:48;;;;;;;9.68;6.63;;;6.80;99.90;;;;;;5099603;28;20093;-65
2023/03/05 07:44:15;;;;;;;9.38;5.40;;;6.60;99.90;;;;;;5098349;28;20093;-66
2023/03/05 07:46:41;;;;;;;7.43;5.30;;;6.30;99.90;;;;;;5081675;28;20040;-66
2023/03/05 07:49:07;;;;;;;6.95;5.25;;;6.30;99.90;;;;;;5081394;28;20040;-66
2023/03/05 07:51:33;;;;;;;7.40;5.50;;;6.30;99.90;;;;;;5081624;28;20028;-66
2023/03/05 07:53:59;;;;;;;9.73;5.05;;;6.40;99.90;;;;;;5081161;28;20051;-66
2023/03/05 07:56:31;;;;;;;10.18;5.60;;;6.20;99.90;;;;;;5098352;28;20031;-67
2023/03/05 07:58:58;;;;;;;7.82;5.25;;;6.20;99.90;;;;;;5098932;28;20024;-68
2023/03/05 08:01:24;;;;;;;7.22;5.68;;;6.20;99.90;;;;;;5099121;28;20028;-68
2023/03/05 08:03:50;;;;;;;10.13;5.47;;;6.30;99.90;;;;;;5099095;28;20059;-65
2023/03/05 08:06:16;;;;;;;7.55;4.70;;;6.40;99.90;;;;;;5098243;28;20442;-69
2023/03/05 08:08:42;;;;;;;7.15;3.75;;;6.30;99.90;;;;;;5098889;28;20035;-66
2023/03/05 08:11:12;;;;;;;6.60;3.70;;;6.40;99.90;;;;;;5098087;28;20372;-67
2023/03/05 08:13:39;;;;;;;6.95;3.22;;;6.40;99.90;;;;;;5098606;28;20028;-67
2023/03/05 08:16:13;;;;;;;4.18;3.35;;;6.40;99.90;;;;;;5097979;28;20055;-67
2023/03/05 08:18:39;;;;;;;3.70;3.10;;;6.30;99.90;;;;;;5097956;28;20301;-69
2023/03/05 08:21:05;;;;;;;6.85;3.33;;;6.10;99.90;;;;;;5097918;28;20032;-69
2023/03/05 08:23:33;;;;;;;5.82;3.70;;;6.10;99.90;;;;;;5098661;28;20269;-68
2023/03/05 08:25:59;;;;;;;5.78;3.00;;;6.20;99.90;;;;;;5097749;28;20032;-68
2023/03/05 08:28:25;;;;;;;4.95;2.75;;;6.00;99.90;;;;;;5098432;28;20028;-71
2023/03/05 08:30:51;;;;;;;5.03;2.47;;;5.90;99.90;;;;;;5098482;28;20322;-65
2023/03/05 08:33:17;;;;;;;6.10;2.83;;;5.90;99.90;;;;;;5098348;28;20254;-66
2023/03/05 08:35:43;;;;;;;4.00;2.50;;;5.90;99.90;;;;;;5097539;28;20039;-65
2023/03/05 08:38:09;;;;;;;4.78;2.63;;;6.10;99.90;;;;;;5063781;28;20206;-66
2023/03/05 08:40:35;;;;;;;6.20;2.40;;;5.90;99.90;;;;;;5080604;28;20143;-67
2023/03/05 08:43:01;;;;;;;3.78;2.55;;;6.10;99.90;;;;;;5098216;28;20276;-68
2023/03/05 08:45:27;;;;;;;3.42;2.20;;;6.30;99.90;;;;;;5097272;28;20299;-69
2023/03/05 08:47:55;;;;;;;2.92;2.00;;;6.40;99.90;;;;;;5097387;28;20032;-72
2023/03/05 08:50:22;;;;;;;4.68;2.33;;;6.60;99.90;;;;;;5097287;28;20044;-67
2023/03/05 08:52:48;;;;;;;2.72;2.17;;;6.70;99.90;;;;;;5097726;28;20056;-67
2023/03/05 08:55:14;;;;;;;6.07;2.35;;;6.70;99.90;;;;;;5080625;28;20395;-67
2023/03/05 08:57:40;;;;;;;4.40;2.40;;;6.70;99.90;;;;;;5098013;28;20137;-67
2023/03/05 09:00:09;;;;;;;4.40;2.55;;;6.80;99.90;;;;;;5097511;28;20498;-67
2023/03/05 09:02:35;;;;;;;3.33;2.10;;;7.10;99.90;;;;;;5080620;28;20076;-67
2023/03/05 09:05:01;;;;;;;2.45;1.80;;;7.10;99.90;;;;;;5097797;28;20024;-66
2023/03/05 09:07:27;;;;;;;3.45;1.85;;;6.90;99.90;;;;;;5097302;28;20039;-65
2023/03/05 09:09:53;;;;;;;2.35;1.90;;;6.90;99.90;;;;;;5096949;28;20032;-67
2023/03/05 09:12:19;;;;;;;4.57;1.88;;;6.80;99.90;;;;;;5097531;28;20042;-66
2023/03/05 09:14:45;;;;;;;3.25;1.80;;;7.00;99.90;;;;;;5079971;28;20039;-67
2023/03/05 09:17:10;;;;;;;3.08;1.92;;;7.20;99.90;;;;;;5097100;28;20407;-67
2023/03/05 09:19:36;;;;;;;3.55;1.90;;;7.30;99.90;;;;;;5096912;28;20028;-67
2023/03/05 09:22:02;;;;;;;5.22;1.80;;;7.60;99.90;;;;;;5096925;28;20105;-67
2023/03/05 09:24:28;;;;;;;3.33;2.13;;;7.90;99.90;;;;;;5096408;28;20101;-67
2023/03/05 09:26:58;;;;;;;2.88;1.88;;;7.70;99.90;;;;;;5097506;28;20032;-67
2023/03/05 09:29:23;;;;;;;2.30;1.90;;;7.80;99.90;;;;;;5096543;28;20032;-67
2023/03/05 09:31:50;;;;;;;1.90;1.65;;;7.90;99.90;;;;;;5096611;28;20032;-67
2023/03/05 09:34:16;;;;;;;2.88;1.63;;;7.80;99.90;;;;;;5096434;28;20031;-68
2023/03/05 09:36:42;;;;;;;3.58;1.85;;;8.10;99.90;;;;;;5096733;28;20023;-68
2023/03/05 09:39:08;;;;;;;3.60;1.70;;;7.90;99.90;;;;;;5097494;28;20039;-67
2023/03/05 09:42:07;;;;;;;2.83;1.58;;;7.30;99.90;;;;;;5097949;28;20024;-67
2023/03/05 09:44:58;;;;;;;2.88;1.30;;;7.30;99.90;;;;;;5097479;28;20109;-67
2023/03/05 09:47:47;;;;;;;2.80;1.23;;;7.80;99.90;;;;;;5097354;28;20388;-68
2023/03/05 09:50:43;;;;;;;3.97;1.38;;;8.00;99.90;;;;;;5097499;28;20101;-68
2023/03/05 09:53:31;;;;;;;2.28;1.38;;;8.30;99.90;;;;;;5096299;28;20050;-68
2023/03/05 09:56:01;;;;;;;3.00;1.70;;;8.30;99.90;;;;;;5097080;28;20028;-67
2023/03/05 09:58:38;;;;;;;2.97;1.60;;;8.10;99.90;;;;;;5097178;28;20028;-68
2023/03/05 10:01:16;;;;;;;2.88;1.58;;;8.00;99.90;;;;;;5097167;28;20032;-68
2023/03/05 10:04:03;;;;;;;2.63;2.15;;;7.90;99.90;;;;;;5096972;28;20113;-68
2023/03/05 10:06:36;;;;;;;3.35;1.70;;;7.70;99.90;;;;;;5096301;28;20303;-68
2023/03/05 10:09:11;;;;;;;3.90;1.60;;;8.00;99.90;;;;;;5096344;28;20044;-69
2023/03/05 10:11:46;;;;;;;3.92;1.77;;;7.70;99.90;;;;;;5096959;28;20300;-65
2023/03/05 10:14:35;;;;;;;3.28;1.52;;;7.60;99.90;;;;;;5096090;28;20043;-64
2023/03/05 10:17:15;;;;;;;4.35;1.70;;;7.40;99.90;;;;;;5096872;28;20035;-64
2023/03/05 10:19:57;;;;;;;3.30;1.23;;;7.50;99.90;;;;;;5096854;28;20058;-64
2023/03/05 10:23:07;;;;;;;3.25;1.55;;;7.60;99.90;;;;;;5096819;28;20032;-69
2023/03/05 10:26:00;;;;;;;2.25;1.08;;;8.10;99.90;;;;;;5073190;28;20089;-65
2023/03/05 10:28:45;;;;;;;1.35;1.00;;;8.50;99.90;;;;;;5095974;28;20337;-67
2023/03/05 10:31:33;;;;;;;1.77;0.90;;;8.80;99.90;;;;;;5095977;28;20034;-67
2023/03/05 10:34:32;;;;;;;2.10;0.95;;;9.00;99.90;;;;;;5095838;28;20028;-66
2023/03/05 10:37:18;;;;;;;2.65;0.70;;;9.20;99.90;;;;;;5100115;28;20403;-66
2023/03/05 10:39:59;;;;;;;1.88;0.80;;;9.50;99.90;;;;;;5100796;28;20298;-64
2023/03/05 10:42:47;;;;;;;1.40;0.90;;;9.10;99.90;;;;;;5100672;28;20456;-66
2023/03/05 10:45:25;;;;;;;1.02;0.73;;;8.70;99.90;;;;;;5099773;28;20020;-66
2023/03/05 10:47:56;;;;;;;1.67;0.82;;;8.70;99.90;;;;;;5099756;28;20114;-66
2023/03/05 10:50:28;;;;;;;1.17;0.80;;;9.00;99.90;;;;;;5082750;28;20277;-68
2023/03/05 10:53:18;;;;;;;2.25;0.82;;;9.40;99.90;;;;;;5099379;28;20109;-67
2023/03/05 10:55:43;;;;;;;1.42;0.82;;;9.70;99.90;;;;;;5100523;28;20024;-69
2023/03/05 10:58:12;;;;;;;2.15;0.93;;;9.80;99.90;;;;;;5099469;28;20439;-64
2023/03/05 11:00:39;;;;;;;4.18;1.17;;;9.40;99.90;;;;;;5099355;28;20063;-67
2023/03/05 11:03:08;;;;;;;1.73;0.98;;;9.20;99.90;;;;;;5099532;28;20097;-69
2023/03/05 11:06:00;;;;;;;2.45;1.13;;;9.30;99.90;;;;;;5099350;28;20040;-66
2023/03/05 11:08:34;;;;;;;3.35;1.30;;;9.40;99.90;;;;;;5100489;28;20063;-66
2023/03/05 11:11:16;;;;;;;1.98;1.40;;;9.50;99.90;;;;;;5100039;28;20103;-67
2023/03/05 11:14:03;;;;;;;3.45;1.38;;;9.70;99.90;;;;;;5100530;28;20380;-69
2023/03/05 11:16:32;;;;;;;1.52;1.08;;;10.30;99.90;;;;;;5099250;28;20028;-69
2023/03/05 11:19:13;;;;;;;3.00;1.05;;;10.50;99.90;;;;;;5082212;28;20032;-66
2023/03/05 11:21:40;;;;;;;3.15;1.30;;;10.70;99.90;;;;;;5098996;28;20031;-69
2023/03/05 11:24:13;;;;;;;2.25;0.82;;;10.40;99.90;;;;;;5082038;28;20369;-65
2023/03/05 11:26:48;;;;;;;3.00;0.88;;;10.00;99.90;;;;;;5098975;28;20107;-66
2023/03/05 11:29:33;;;;;;;1.95;0.82;;;10.00;99.90;;;;;;5099528;28;20040;-65
2023/03/05 11:32:35;;;;;;;2.45;0.68;;;10.50;99.90;;;;;;5082800;28;20028;-66
2023/03/05 11:35:01;;;;;;;1.98;0.52;;;10.70;99.90;;;;;;5037691;28;20451;-66
2023/03/05 11:37:30;;;;;;;1.58;0.60;;;10.30;99.90;;;;;;5087139;28;20044;-70
2023/03/05 11:40:19;;;;;;;1.88;0.65;;;10.00;99.90;;;;;;5081806;28;20436;-65
2023/03/05 11:42:54;;;;;;;2.08;0.80;;;9.60;99.90;;;;;;5099908;28;20039;-66
2023/03/05 11:45:21;;;;;;;3.00;1.00;;;9.30;99.90;;;;;;5098639;28;20040;-66
2023/03/05 11:47:52;;;;;;;1.40;1.20;;;9.10;99.90;;;;;;5099062;28;20040;-66
2023/03/05 11:50:24;;;;;;;2.55;1.50;;;8.80;99.90;;;;;;5099361;28;20039;-66
2023/03/05 11:53:22;;;;;;;4.38;1.77;;;8.60;99.90;;;;;;5098972;28;20100;-67
2023/03/05 11:56:12;;;;;;;4.13;1.60;;;8.50;99.90;;;;;;5098520;28;20358;-66
2023/03/05 11:59:01;;;;;;;3.25;1.00;;;8.40;99.90;;;;;;5098415;28;20032;-61
2023/03/05 12:01:32;;;;;;;4.28;1.10;;;8.10;99.90;;;;;;5099165;28;20028;-62
2023/03/05 12:03:59;;;;;;;6.13;1.17;;;7.70;99.90;;;;;;5098392;28;20062;-61
2023/03/05 12:06:48;;;;;;;1.73;0.95;;;7.40;99.90;;;;;;5081715;28;20113;-59
2023/03/05 12:09:40;;;;;;;1.23;1.02;;;7.30;99.90;;;;;;5098205;28;20079;-60
2023/03/05 12:12:29;;;;;;;3.30;0.90;;;7.30;99.90;;;;;;5099002;28;20423;-59
2023/03/05 12:15:21;;;;;;;4.88;0.95;;;7.50;99.90;;;;;;5098684;28;20365;-60
2023/03/05 12:18:12;;;;;;;1.95;0.80;;;7.40;99.90;;;;;;5099190;28;20039;-58
2023/03/05 12:21:08;;;;;;;4.10;0.77;;;7.50;99.90;;;;;;5097801;28;20395;-58
2023/03/05 12:23:50;;;;;;;1.45;0.82;;;7.10;99.90;;;;;;5097979;28;20101;-59
2023/03/05 12:26:16;;;;;;;3.13;0.80;;;7.10;99.90;;;;;;5098564;28;20028;-58
2023/03/05 12:28:44;;;;;;;2.67;0.90;;;7.20;99.90;;;;;;5097856;28;20036;-59
2023/03/05 12:31:45;;;;;;;2.78;1.00;;;7.50;99.90;;;;;;5098444;28;20036;-60
2023/03/05 12:34:33;;;;;;;5.30;1.63;;;8.10;99.90;;;;;;5056730;28;20033;-60
2023/03/05 12:36:59;;;;;;;2.95;0.63;;;8.40;99.90;;;;;;5077721;28;20369;-59
2023/03/05 12:39:48;;;;;;;1.80;0.70;;;8.60;99.90;;;;;;5097893;28;20081;-60
2023/03/05 12:42:30;;;;;;;1.00;0.52;;;8.90;99.90;;;;;;5097526;28;20056;-58
2023/03/05 12:45:11;;;;;;;3.08;0.68;;;9.20;99.90;;;;;;5098165;28;20101;-60
2023/03/05 12:47:42;;;;;;;1.27;0.40;;;9.30;99.90;;;;;;5098089;28;20028;-63
2023/03/05 12:50:28;;;;;;;2.42;0.50;;;9.60;99.90;;;;;;5098103;28;20066;-61
2023/03/05 12:53:17;;;;;;;4.53;0.50;;;9.70;99.90;;;;;;5096812;28;20051;-59
2023/03/05 12:55:54;;;;;;;0.90;0.35;;;9.60;99.90;;;;;;5097356;28;20396;-61
2023/03/05 12:58:39;;;;;;;2.05;0.70;;;9.60;99.90;;;;;;5097301;28;20097;-61
2023/03/05 13:01:05;;;;;;;1.65;0.50;;;9.60;99.90;;;;;;5097026;28;20034;-60
2023/03/05 13:03:35;;;;;;;1.77;0.55;;;9.40;99.90;;;;;;5097831;28;20024;-60
2023/03/05 13:06:04;;;;;;;2.90;0.60;;;9.40;99.90;;;;;;5080174;28;20334;-63
2023/03/05 13:08:36;;;;;;;1.65;0.70;;;9.20;99.90;;;;;;5080606;28;20319;-64